East Leroy, Michigan
Current Conditions -  °F | °C
As of 4:06 AM on Thursday 23 Oct 2014 (Local Time) from KBTL Reporting Station
Haze Haze  
Wind Chill: 32°   Ceiling: 100
Heat Index: 32°   Visibility: 1.2mi
Dew Point: 30°   Wind: 0mph
Humidity: 92%   Direction: NA
Pressure: 30.27"   Gusts: NA
Location:  42.17°N, 85.22°W
Report Text: KBTL 230806Z 00000KT 1 1/4SM BR BKN001 00/M01 A3027 RMK AO2 T00001011
Loading
Personal Weather Stations






























Interactive Weather Map
Tropical Storm Tracking
New forecast layout! Learn more

10-Day Weather Forecast

Advertisements
Track Severe Weather on mobile